sensor_id;sensor_type;location;lat;lon;timestamp;temperature;humidity
19665;DHT22;9980;51.020;7.772;2023-05-15T00:01:35;12.90;97.50
19665;DHT22;9980;51.020;7.772;2023-05-15T00:04:01;12.80;97.50
19665;DHT22;9980;51.020;7.772;2023-05-15T00:06:27;12.80;97.40
19665;DHT22;9980;51.020;7.772;2023-05-15T00:08:54;12.80;97.40
19665;DHT22;9980;51.020;7.772;2023-05-15T00:11:21;12.80;97.40
19665;DHT22;9980;51.020;7.772;2023-05-15T00:13:49;12.70;97.50
19665;DHT22;9980;51.020;7.772;2023-05-15T00:16:15;12.70;97.40
19665;DHT22;9980;51.020;7.772;2023-05-15T00:18:42;12.70;97.40
19665;DHT22;9980;51.020;7.772;2023-05-15T00:21:08;12.60;97.30
19665;DHT22;9980;51.020;7.772;2023-05-15T00:23:34;12.60;97.30
19665;DHT22;9980;51.020;7.772;2023-05-15T00:26:00;12.60;97.30
19665;DHT22;9980;51.020;7.772;2023-05-15T00:28:26;12.50;97.20
19665;DHT22;9980;51.020;7.772;2023-05-15T00:30:54;12.50;97.20
19665;DHT22;9980;51.020;7.772;2023-05-15T00:33:21;12.50;97.20
19665;DHT22;9980;51.020;7.772;2023-05-15T00:35:47;12.40;97.20
19665;DHT22;9980;51.020;7.772;2023-05-15T00:38:13;12.40;97.20
19665;DHT22;9980;51.020;7.772;2023-05-15T00:40:40;12.30;97.20
19665;DHT22;9980;51.020;7.772;2023-05-15T00:43:08;12.30;97.20
19665;DHT22;9980;51.020;7.772;2023-05-15T00:45:38;12.30;97.20
19665;DHT22;9980;51.020;7.772;2023-05-15T00:48:10;12.20;97.20
19665;DHT22;9980;51.020;7.772;2023-05-15T00:50:38;12.20;97.30
19665;DHT22;9980;51.020;7.772;2023-05-15T00:53:06;12.10;97.30
19665;DHT22;9980;51.020;7.772;2023-05-15T00:55:34;12.10;97.30
19665;DHT22;9980;51.020;7.772;2023-05-15T00:58:03;12.10;97.30
19665;DHT22;9980;51.020;7.772;2023-05-15T01:00:31;12.00;97.30
19665;DHT22;9980;51.020;7.772;2023-05-15T01:02:58;12.00;97.30
19665;DHT22;9980;51.020;7.772;2023-05-15T01:05:27;11.90;97.30
19665;DHT22;9980;51.020;7.772;2023-05-15T01:08:07;11.90;97.40
19665;DHT22;9980;51.020;7.772;2023-05-15T01:10:38;11.90;97.60
19665;DHT22;9980;51.020;7.772;2023-05-15T01:13:08;11.90;97.50
19665;DHT22;9980;51.020;7.772;2023-05-15T01:15:36;11.80;97.60
19665;DHT22;9980;51.020;7.772;2023-05-15T01:18:03;11.80;97.70
19665;DHT22;9980;51.020;7.772;2023-05-15T01:20:35;11.80;97.80
19665;DHT22;9980;51.020;7.772;2023-05-15T01:29:26;11.80;98.00
19665;DHT22;9980;51.020;7.772;2023-05-15T01:32:11;11.70;98.00
19665;DHT22;9980;51.020;7.772;2023-05-15T01:35:03;11.70;98.10
19665;DHT22;9980;51.020;7.772;2023-05-15T01:37:31;11.70;98.20
19665;DHT22;9980;51.020;7.772;2023-05-15T01:40:03;11.70;98.20
19665;DHT22;9980;51.020;7.772;2023-05-15T01:42:35;11.70;98.30
19665;DHT22;9980;51.020;7.772;2023-05-15T01:45:10;11.70;98.20
19665;DHT22;9980;51.020;7.772;2023-05-15T01:47:43;11.60;98.20
19665;DHT22;9980;51.020;7.772;2023-05-15T01:50:14;11.60;98.20
19665;DHT22;9980;51.020;7.772;2023-05-15T01:52:50;11.60;98.10
19665;DHT22;9980;51.020;7.772;2023-05-15T01:55:22;11.60;98.10
19665;DHT22;9980;51.020;7.772;2023-05-15T01:57:51;11.60;98.10
19665;DHT22;9980;51.020;7.772;2023-05-15T02:00:18;11.50;98.00
19665;DHT22;9980;51.020;7.772;2023-05-15T02:02:45;11.50;98.00
19665;DHT22;9980;51.020;7.772;2023-05-15T02:05:16;11.50;98.00
19665;DHT22;9980;51.020;7.772;2023-05-15T02:07:46;11.40;98.00
19665;DHT22;9980;51.020;7.772;2023-05-15T02:10:15;11.40;98.10
19665;DHT22;9980;51.020;7.772;2023-05-15T02:12:46;11.40;98.20
19665;DHT22;9980;51.020;7.772;2023-05-15T02:15:13;11.30;98.10
19665;DHT22;9980;51.020;7.772;2023-05-15T02:17:42;11.30;98.20
19665;DHT22;9980;51.020;7.772;2023-05-15T02:20:11;11.30;98.30
19665;DHT22;9980;51.020;7.772;2023-05-15T02:22:39;11.30;98.40
19665;DHT22;9980;51.020;7.772;2023-05-15T02:25:05;11.30;98.40
19665;DHT22;9980;51.020;7.772;2023-05-15T02:27:44;11.30;98.60
19665;DHT22;9980;51.020;7.772;2023-05-15T02:30:26;11.30;98.70
19665;DHT22;9980;51.020;7.772;2023-05-15T02:33:13;11.30;98.60
19665;DHT22;9980;51.020;7.772;2023-05-15T02:35:58;11.20;98.50
19665;DHT22;9980;51.020;7.772;2023-05-15T02:38:30;11.20;98.60
19665;DHT22;9980;51.020;7.772;2023-05-15T02:41:02;11.20;98.70
19665;DHT22;9980;51.020;7.772;2023-05-15T02:43:31;11.20;98.80
19665;DHT22;9980;51.020;7.772;2023-05-15T02:45:59;11.20;98.80
19665;DHT22;9980;51.020;7.772;2023-05-15T02:48:25;11.20;98.90
19665;DHT22;9980;51.020;7.772;2023-05-15T02:50:52;11.20;98.90
19665;DHT22;9980;51.020;7.772;2023-05-15T02:53:19;11.20;99.00
19665;DHT22;9980;51.020;7.772;2023-05-15T02:55:45;11.20;99.00
19665;DHT22;9980;51.020;7.772;2023-05-15T02:58:11;11.10;99.00
19665;DHT22;9980;51.020;7.772;2023-05-15T03:00:37;11.20;99.10
19665;DHT22;9980;51.020;7.772;2023-05-15T03:03:04;11.10;99.10
19665;DHT22;9980;51.020;7.772;2023-05-15T03:05:30;11.10;99.20
19665;DHT22;9980;51.020;7.772;2023-05-15T03:07:56;11.10;99.20
19665;DHT22;9980;51.020;7.772;2023-05-15T03:10:23;11.10;99.20
19665;DHT22;9980;51.020;7.772;2023-05-15T03:12:50;11.10;99.20
19665;DHT22;9980;51.020;7.772;2023-05-15T03:15:16;11.00;99.30
19665;DHT22;9980;51.020;7.772;2023-05-15T03:17:43;11.10;99.40
19665;DHT22;9980;51.020;7.772;2023-05-15T03:20:09;11.00;99.30
19665;DHT22;9980;51.020;7.772;2023-05-15T03:22:36;11.00;99.30
19665;DHT22;9980;51.020;7.772;2023-05-15T03:25:02;11.00;99.40
19665;DHT22;9980;51.020;7.772;2023-05-15T03:27:28;11.00;99.30
19665;DHT22;9980;51.020;7.772;2023-05-15T03:29:54;10.90;99.20
19665;DHT22;9980;51.020;7.772;2023-05-15T03:32:21;10.90;99.20
19665;DHT22;9980;51.020;7.772;2023-05-15T03:34:47;10.90;99.20
19665;DHT22;9980;51.020;7.772;2023-05-15T03:37:13;10.90;99.20
19665;DHT22;9980;51.020;7.772;2023-05-15T03:39:40;10.90;99.20
19665;DHT22;9980;51.020;7.772;2023-05-15T03:42:06;10.90;99.20
19665;DHT22;9980;51.020;7.772;2023-05-15T03:44:32;10.80;99.20
19665;DHT22;9980;51.020;7.772;2023-05-15T03:46:59;10.80;99.20
19665;DHT22;9980;51.020;7.772;2023-05-15T03:49:25;10.80;99.20
19665;DHT22;9980;51.020;7.772;2023-05-15T03:51:52;10.80;99.20
19665;DHT22;9980;51.020;7.772;2023-05-15T03:54:18;10.80;99.30
19665;DHT22;9980;51.020;7.772;2023-05-15T03:56:44;10.80;99.30
19665;DHT22;9980;51.020;7.772;2023-05-15T03:59:11;10.70;99.20
19665;DHT22;9980;51.020;7.772;2023-05-15T04:01:37;10.70;99.30
19665;DHT22;9980;51.020;7.772;2023-05-15T04:04:23;10.70;99.40
19665;DHT22;9980;51.020;7.772;2023-05-15T04:06:50;10.70;99.50
19665;DHT22;9980;51.020;7.772;2023-05-15T04:09:16;10.70;99.50
19665;DHT22;9980;51.020;7.772;2023-05-15T04:11:42;10.70;99.90
19665;DHT22;9980;51.020;7.772;2023-05-15T04:14:12;10.70;99.60
19665;DHT22;9980;51.020;7.772;2023-05-15T04:16:38;10.70;99.70
19665;DHT22;9980;51.020;7.772;2023-05-15T04:19:04;10.70;99.90
19665;DHT22;9980;51.020;7.772;2023-05-15T04:21:31;10.70;99.90
19665;DHT22;9980;51.020;7.772;2023-05-15T04:23:57;10.70;99.90
19665;DHT22;9980;51.020;7.772;2023-05-15T04:26:23;10.70;99.90
19665;DHT22;9980;51.020;7.772;2023-05-15T04:28:50;10.70;99.90
19665;DHT22;9980;51.020;7.772;2023-05-15T04:31:29;10.70;99.90
19665;DHT22;9980;51.020;7.772;2023-05-15T04:33:56;10.70;99.90
19665;DHT22;9980;51.020;7.772;2023-05-15T04:36:22;10.80;99.90
19665;DHT22;9980;51.020;7.772;2023-05-15T04:38:48;10.70;99.90
19665;DHT22;9980;51.020;7.772;2023-05-15T04:41:15;10.70;99.90
19665;DHT22;9980;51.020;7.772;2023-05-15T04:43:41;10.80;99.90
19665;DHT22;9980;51.020;7.772;2023-05-15T04:46:08;10.80;99.90
19665;DHT22;9980;51.020;7.772;2023-05-15T04:48:34;10.80;99.90
19665;DHT22;9980;51.020;7.772;2023-05-15T04:51:00;10.80;99.90
19665;DHT22;9980;51.020;7.772;2023-05-15T04:53:26;10.80;99.90
19665;DHT22;9980;51.020;7.772;2023-05-15T04:55:52;10.80;99.90
19665;DHT22;9980;51.020;7.772;2023-05-15T04:58:19;10.80;99.90
19665;DHT22;9980;51.020;7.772;2023-05-15T05:00:45;10.80;99.90
19665;DHT22;9980;51.020;7.772;2023-05-15T05:03:11;10.80;99.90
19665;DHT22;9980;51.020;7.772;2023-05-15T05:05:37;10.80;99.90
19665;DHT22;9980;51.020;7.772;2023-05-15T05:08:04;10.80;99.90
19665;DHT22;9980;51.020;7.772;2023-05-15T05:10:30;10.90;99.90
19665;DHT22;9980;51.020;7.772;2023-05-15T05:12:56;10.90;99.90
19665;DHT22;9980;51.020;7.772;2023-05-15T05:15:22;10.90;99.90
19665;DHT22;9980;51.020;7.772;2023-05-15T05:17:49;11.00;99.90
19665;DHT22;9980;51.020;7.772;2023-05-15T05:20:15;11.00;99.90
19665;DHT22;9980;51.020;7.772;2023-05-15T05:22:42;11.00;99.90
19665;DHT22;9980;51.020;7.772;2023-05-15T05:25:08;11.10;99.90
19665;DHT22;9980;51.020;7.772;2023-05-15T05:27:37;11.20;99.90
19665;DHT22;9980;51.020;7.772;2023-05-15T05:30:04;11.20;99.90
19665;DHT22;9980;51.020;7.772;2023-05-15T05:32:31;11.30;99.90
19665;DHT22;9980;51.020;7.772;2023-05-15T05:34:57;11.40;99.90
19665;DHT22;9980;51.020;7.772;2023-05-15T05:37:23;11.50;99.90
19665;DHT22;9980;51.020;7.772;2023-05-15T05:39:49;11.60;99.90
19665;DHT22;9980;51.020;7.772;2023-05-15T05:42:15;11.60;99.90
19665;DHT22;9980;51.020;7.772;2023-05-15T05:44:41;11.70;99.90
19665;DHT22;9980;51.020;7.772;2023-05-15T05:47:11;11.80;99.90
19665;DHT22;9980;51.020;7.772;2023-05-15T05:49:37;12.00;99.90
19665;DHT22;9980;51.020;7.772;2023-05-15T05:52:06;12.10;99.90
19665;DHT22;9980;51.020;7.772;2023-05-15T05:54:32;12.10;99.90
19665;DHT22;9980;51.020;7.772;2023-05-15T05:56:59;12.30;99.90
19665;DHT22;9980;51.020;7.772;2023-05-15T05:59:25;12.40;99.90
19665;DHT22;9980;51.020;7.772;2023-05-15T06:01:51;12.50;99.90
19665;DHT22;9980;51.020;7.772;2023-05-15T06:04:18;12.70;99.90
19665;DHT22;9980;51.020;7.772;2023-05-15T06:06:44;12.80;99.90
19665;DHT22;9980;51.020;7.772;2023-05-15T06:09:10;12.90;99.90
19665;DHT22;9980;51.020;7.772;2023-05-15T06:11:37;13.10;99.90
19665;DHT22;9980;51.020;7.772;2023-05-15T06:14:03;13.20;99.90
19665;DHT22;9980;51.020;7.772;2023-05-15T06:16:29;13.30;99.90
19665;DHT22;9980;51.020;7.772;2023-05-15T06:18:56;13.50;99.90
19665;DHT22;9980;51.020;7.772;2023-05-15T06:21:22;13.60;99.90
19665;DHT22;9980;51.020;7.772;2023-05-15T06:23:48;13.70;99.90
19665;DHT22;9980;51.020;7.772;2023-05-15T06:26:14;13.80;99.90
19665;DHT22;9980;51.020;7.772;2023-05-15T06:28:40;13.90;99.90
19665;DHT22;9980;51.020;7.772;2023-05-15T06:31:06;14.00;99.90
19665;DHT22;9980;51.020;7.772;2023-05-15T06:33:33;14.10;99.90
19665;DHT22;9980;51.020;7.772;2023-05-15T06:35:59;14.20;99.90
19665;DHT22;9980;51.020;7.772;2023-05-15T06:38:25;14.30;99.90
19665;DHT22;9980;51.020;7.772;2023-05-15T06:40:51;14.40;99.90
19665;DHT22;9980;51.020;7.772;2023-05-15T06:43:18;14.40;99.90
19665;DHT22;9980;51.020;7.772;2023-05-15T06:45:44;14.50;99.90
19665;DHT22;9980;51.020;7.772;2023-05-15T06:48:10;14.60;99.90
19665;DHT22;9980;51.020;7.772;2023-05-15T06:50:39;14.70;99.90
19665;DHT22;9980;51.020;7.772;2023-05-15T06:53:06;14.70;99.90
19665;DHT22;9980;51.020;7.772;2023-05-15T06:55:32;14.70;99.90
19665;DHT22;9980;51.020;7.772;2023-05-15T06:57:59;14.80;99.90
19665;DHT22;9980;51.020;7.772;2023-05-15T07:00:25;14.80;99.90
19665;DHT22;9980;51.020;7.772;2023-05-15T07:02:52;14.90;99.90
19665;DHT22;9980;51.020;7.772;2023-05-15T07:05:19;14.90;99.90
19665;DHT22;9980;51.020;7.772;2023-05-15T07:07:46;15.00;99.90
19665;DHT22;9980;51.020;7.772;2023-05-15T07:10:12;15.00;99.90
19665;DHT22;9980;51.020;7.772;2023-05-15T07:12:39;15.10;99.90
19665;DHT22;9980;51.020;7.772;2023-05-15T07:15:05;15.10;99.90
19665;DHT22;9980;51.020;7.772;2023-05-15T07:17:32;15.20;99.90
19665;DHT22;9980;51.020;7.772;2023-05-15T07:19:59;15.30;99.90
19665;DHT22;9980;51.020;7.772;2023-05-15T07:22:26;15.30;99.90
19665;DHT22;9980;51.020;7.772;2023-05-15T07:24:53;15.30;99.90
19665;DHT22;9980;51.020;7.772;2023-05-15T07:27:19;15.40;99.90
19665;DHT22;9980;51.020;7.772;2023-05-15T07:29:46;15.50;99.90
19665;DHT22;9980;51.020;7.772;2023-05-15T07:32:12;15.50;99.90
19665;DHT22;9980;51.020;7.772;2023-05-15T07:34:38;15.60;99.90
19665;DHT22;9980;51.020;7.772;2023-05-15T07:37:04;15.60;99.90
19665;DHT22;9980;51.020;7.772;2023-05-15T07:39:31;15.70;99.90
19665;DHT22;9980;51.020;7.772;2023-05-15T07:41:57;15.70;99.90
19665;DHT22;9980;51.020;7.772;2023-05-15T07:44:23;15.80;99.90
19665;DHT22;9980;51.020;7.772;2023-05-15T07:46:50;15.80;99.90
19665;DHT22;9980;51.020;7.772;2023-05-15T07:49:16;15.90;99.90
19665;DHT22;9980;51.020;7.772;2023-05-15T07:51:42;15.90;99.90
19665;DHT22;9980;51.020;7.772;2023-05-15T07:54:09;16.00;99.90
19665;DHT22;9980;51.020;7.772;2023-05-15T07:56:35;16.10;99.90
19665;DHT22;9980;51.020;7.772;2023-05-15T07:59:01;16.10;99.90
19665;DHT22;9980;51.020;7.772;2023-05-15T08:01:28;16.20;99.90
19665;DHT22;9980;51.020;7.772;2023-05-15T08:03:58;16.30;99.90
19665;DHT22;9980;51.020;7.772;2023-05-15T08:06:24;16.40;99.90
19665;DHT22;9980;51.020;7.772;2023-05-15T08:08:50;16.40;99.90
19665;DHT22;9980;51.020;7.772;2023-05-15T08:11:17;16.50;99.90
19665;DHT22;9980;51.020;7.772;2023-05-15T08:13:43;16.70;99.90
19665;DHT22;9980;51.020;7.772;2023-05-15T08:16:10;16.70;99.90
19665;DHT22;9980;51.020;7.772;2023-05-15T08:18:36;16.90;99.90
19665;DHT22;9980;51.020;7.772;2023-05-15T08:21:03;17.00;99.90
19665;DHT22;9980;51.020;7.772;2023-05-15T08:23:30;17.10;99.90
19665;DHT22;9980;51.020;7.772;2023-05-15T08:25:56;17.20;99.90
19665;DHT22;9980;51.020;7.772;2023-05-15T08:28:22;17.40;99.90
19665;DHT22;9980;51.020;7.772;2023-05-15T08:30:48;17.50;99.90
19665;DHT22;9980;51.020;7.772;2023-05-15T08:33:15;17.60;99.90
19665;DHT22;9980;51.020;7.772;2023-05-15T08:35:41;17.80;99.90
19665;DHT22;9980;51.020;7.772;2023-05-15T08:38:07;17.90;99.90
19665;DHT22;9980;51.020;7.772;2023-05-15T08:40:34;18.10;99.90
19665;DHT22;9980;51.020;7.772;2023-05-15T08:43:11;18.20;99.90
19665;DHT22;9980;51.020;7.772;2023-05-15T08:45:41;18.40;99.90
19665;DHT22;9980;51.020;7.772;2023-05-15T08:48:12;18.50;99.90
19665;DHT22;9980;51.020;7.772;2023-05-15T08:50:40;18.70;99.90
19665;DHT22;9980;51.020;7.772;2023-05-15T08:53:11;18.80;99.90
19665;DHT22;9980;51.020;7.772;2023-05-15T08:55:39;18.90;99.90
19665;DHT22;9980;51.020;7.772;2023-05-15T08:58:06;18.90;99.90
19665;DHT22;9980;51.020;7.772;2023-05-15T09:00:33;18.90;99.90
19665;DHT22;9980;51.020;7.772;2023-05-15T09:03:00;19.00;99.90
19665;DHT22;9980;51.020;7.772;2023-05-15T09:05:28;19.00;99.90
19665;DHT22;9980;51.020;7.772;2023-05-15T09:07:56;19.10;99.90
19665;DHT22;9980;51.020;7.772;2023-05-15T09:10:24;19.10;99.90
19665;DHT22;9980;51.020;7.772;2023-05-15T09:12:51;19.20;99.90
19665;DHT22;9980;51.020;7.772;2023-05-15T09:15:19;19.20;99.90
19665;DHT22;9980;51.020;7.772;2023-05-15T09:17:49;19.30;99.90
19665;DHT22;9980;51.020;7.772;2023-05-15T09:22:58;19.50;99.80
19665;DHT22;9980;51.020;7.772;2023-05-15T09:25:40;19.60;99.50
19665;DHT22;9980;51.020;7.772;2023-05-15T09:28:23;19.70;99.30
19665;DHT22;9980;51.020;7.772;2023-05-15T09:33:32;20.00;99.80
19665;DHT22;9980;51.020;7.772;2023-05-15T09:36:04;20.10;99.40
19665;DHT22;9980;51.020;7.772;2023-05-15T09:38:33;20.30;99.50
19665;DHT22;9980;51.020;7.772;2023-05-15T09:41:06;20.40;99.50
19665;DHT22;9980;51.020;7.772;2023-05-15T09:43:37;20.60;98.90
19665;DHT22;9980;51.020;7.772;2023-05-15T09:46:05;20.70;98.60
19665;DHT22;9980;51.020;7.772;2023-05-15T09:48:37;20.90;99.00
19665;DHT22;9980;51.020;7.772;2023-05-15T09:51:05;21.00;98.60
19665;DHT22;9980;51.020;7.772;2023-05-15T09:53:48;21.10;98.60
19665;DHT22;9980;51.020;7.772;2023-05-15T09:56:16;21.30;97.70
19665;DHT22;9980;51.020;7.772;2023-05-15T09:58:57;21.40;98.00
19665;DHT22;9980;51.020;7.772;2023-05-15T10:01:25;21.60;97.30
19665;DHT22;9980;51.020;7.772;2023-05-15T10:04:03;21.70;97.10
19665;DHT22;9980;51.020;7.772;2023-05-15T10:06:35;21.80;97.30
19665;DHT22;9980;51.020;7.772;2023-05-15T10:09:03;21.90;96.80
19665;DHT22;9980;51.020;7.772;2023-05-15T10:11:29;22.00;96.90
19665;DHT22;9980;51.020;7.772;2023-05-15T10:13:59;22.10;97.30
19665;DHT22;9980;51.020;7.772;2023-05-15T10:16:28;22.20;96.30
19665;DHT22;9980;51.020;7.772;2023-05-15T10:18:56;22.30;96.50
19665;DHT22;9980;51.020;7.772;2023-05-15T10:21:24;22.30;96.20
19665;DHT22;9980;51.020;7.772;2023-05-15T10:23:53;22.40;96.00
19665;DHT22;9980;51.020;7.772;2023-05-15T10:29:06;22.50;94.80
19665;DHT22;9980;51.020;7.772;2023-05-15T10:31:34;22.50;94.80
19665;DHT22;9980;51.020;7.772;2023-05-15T10:34:02;22.40;94.80
19665;DHT22;9980;51.020;7.772;2023-05-15T10:36:31;22.30;94.50
19665;DHT22;9980;51.020;7.772;2023-05-15T10:38:59;22.20;94.50
19665;DHT22;9980;51.020;7.772;2023-05-15T10:41:31;22.20;94.40
19665;DHT22;9980;51.020;7.772;2023-05-15T10:43:59;22.10;95.10
19665;DHT22;9980;51.020;7.772;2023-05-15T10:46:32;22.10;95.40
19665;DHT22;9980;51.020;7.772;2023-05-15T10:48:59;22.10;95.10
19665;DHT22;9980;51.020;7.772;2023-05-15T10:51:29;22.10;95.60
19665;DHT22;9980;51.020;7.772;2023-05-15T10:53:59;22.20;95.40
19665;DHT22;9980;51.020;7.772;2023-05-15T10:56:29;22.30;95.50
19665;DHT22;9980;51.020;7.772;2023-05-15T10:58:59;22.40;95.60
19665;DHT22;9980;51.020;7.772;2023-05-15T11:01:38;22.50;95.30
19665;DHT22;9980;51.020;7.772;2023-05-15T11:04:17;22.60;95.50
19665;DHT22;9980;51.020;7.772;2023-05-15T11:06:49;22.70;95.10
19665;DHT22;9980;51.020;7.772;2023-05-15T11:11:54;22.90;94.80
19665;DHT22;9980;51.020;7.772;2023-05-15T11:14:27;23.10;94.80
19665;DHT22;9980;51.020;7.772;2023-05-15T11:16:58;23.20;94.20
19665;DHT22;9980;51.020;7.772;2023-05-15T11:22:17;23.50;94.60
19665;DHT22;9980;51.020;7.772;2023-05-15T11:25:03;23.60;93.20
19665;DHT22;9980;51.020;7.772;2023-05-15T11:27:38;23.70;93.70
19665;DHT22;9980;51.020;7.772;2023-05-15T11:30:19;23.80;94.00
19665;DHT22;9980;51.020;7.772;2023-05-15T11:38:03;24.10;93.10
19665;DHT22;9980;51.020;7.772;2023-05-15T11:40:47;24.20;92.70
19665;DHT22;9980;51.020;7.772;2023-05-15T11:43:33;24.40;92.40
19665;DHT22;9980;51.020;7.772;2023-05-15T11:46:07;24.40;92.50
19665;DHT22;9980;51.020;7.772;2023-05-15T11:48:40;24.40;92.30
19665;DHT22;9980;51.020;7.772;2023-05-15T11:51:21;24.50;92.40
19665;DHT22;9980;51.020;7.772;2023-05-15T11:53:51;24.60;91.90
19665;DHT22;9980;51.020;7.772;2023-05-15T11:56:23;24.60;90.90
19665;DHT22;9980;51.020;7.772;2023-05-15T11:58:59;24.60;90.80
19665;DHT22;9980;51.020;7.772;2023-05-15T12:01:38;24.60;90.70
19665;DHT22;9980;51.020;7.772;2023-05-15T12:04:16;24.70;90.50
19665;DHT22;9980;51.020;7.772;2023-05-15T12:06:44;24.80;90.70
19665;DHT22;9980;51.020;7.772;2023-05-15T12:09:15;24.80;90.00
19665;DHT22;9980;51.020;7.772;2023-05-15T12:11:51;24.70;88.00
19665;DHT22;9980;51.020;7.772;2023-05-15T12:14:28;24.60;85.80
19665;DHT22;9980;51.020;7.772;2023-05-15T12:16:59;24.60;87.30
19665;DHT22;9980;51.020;7.772;2023-05-15T12:19:30;24.60;88.30
19665;DHT22;9980;51.020;7.772;2023-05-15T12:22:03;24.60;87.50
19665;DHT22;9980;51.020;7.772;2023-05-15T12:24:31;24.60;86.30
19665;DHT22;9980;51.020;7.772;2023-05-15T12:26:57;24.60;87.30
19665;DHT22;9980;51.020;7.772;2023-05-15T12:29:25;24.60;87.50
19665;DHT22;9980;51.020;7.772;2023-05-15T12:31:52;24.60;86.80
19665;DHT22;9980;51.020;7.772;2023-05-15T12:34:20;24.60;85.40
19665;DHT22;9980;51.020;7.772;2023-05-15T12:36:47;24.60;84.20
19665;DHT22;9980;51.020;7.772;2023-05-15T12:39:13;24.50;84.80
19665;DHT22;9980;51.020;7.772;2023-05-15T12:41:39;24.40;85.30
19665;DHT22;9980;51.020;7.772;2023-05-15T12:44:05;24.40;85.70
19665;DHT22;9980;51.020;7.772;2023-05-15T12:46:31;24.40;84.80
19665;DHT22;9980;51.020;7.772;2023-05-15T12:48:58;24.40;85.60
19665;DHT22;9980;51.020;7.772;2023-05-15T12:51:26;24.40;83.90
19665;DHT22;9980;51.020;7.772;2023-05-15T12:53:55;24.40;83.70
19665;DHT22;9980;51.020;7.772;2023-05-15T12:56:24;24.50;86.80
19665;DHT22;9980;51.020;7.772;2023-05-15T12:58:51;24.60;84.50
19665;DHT22;9980;51.020;7.772;2023-05-15T13:01:20;24.60;82.60
19665;DHT22;9980;51.020;7.772;2023-05-15T13:03:47;24.70;83.00
19665;DHT22;9980;51.020;7.772;2023-05-15T13:06:14;24.70;79.80
19665;DHT22;9980;51.020;7.772;2023-05-15T13:08:41;24.70;80.00
19665;DHT22;9980;51.020;7.772;2023-05-15T13:11:12;24.60;78.40
19665;DHT22;9980;51.020;7.772;2023-05-15T13:13:42;24.50;78.00
19665;DHT22;9980;51.020;7.772;2023-05-15T13:16:21;24.40;80.30
19665;DHT22;9980;51.020;7.772;2023-05-15T13:18:51;24.20;80.00
19665;DHT22;9980;51.020;7.772;2023-05-15T13:21:18;24.10;78.30
19665;DHT22;9980;51.020;7.772;2023-05-15T13:23:45;23.80;79.30
19665;DHT22;9980;51.020;7.772;2023-05-15T13:26:12;23.60;79.20
19665;DHT22;9980;51.020;7.772;2023-05-15T13:28:38;23.40;80.20
19665;DHT22;9980;51.020;7.772;2023-05-15T13:31:05;23.20;84.30
19665;DHT22;9980;51.020;7.772;2023-05-15T13:33:31;23.00;85.60
19665;DHT22;9980;51.020;7.772;2023-05-15T13:35:58;22.90;86.10
19665;DHT22;9980;51.020;7.772;2023-05-15T13:38:43;22.70;87.10
19665;DHT22;9980;51.020;7.772;2023-05-15T13:41:09;22.70;88.10
19665;DHT22;9980;51.020;7.772;2023-05-15T13:43:35;22.60;90.50
19665;DHT22;9980;51.020;7.772;2023-05-15T13:46:02;22.50;89.50
19665;DHT22;9980;51.020;7.772;2023-05-15T13:48:29;22.50;90.10
19665;DHT22;9980;51.020;7.772;2023-05-15T13:50:55;22.40;89.90
19665;DHT22;9980;51.020;7.772;2023-05-15T13:53:22;22.40;90.20
19665;DHT22;9980;51.020;7.772;2023-05-15T13:55:48;22.30;89.80
19665;DHT22;9980;51.020;7.772;2023-05-15T13:58:14;22.30;89.80
19665;DHT22;9980;51.020;7.772;2023-05-15T14:00:42;22.30;89.80
19665;DHT22;9980;51.020;7.772;2023-05-15T14:03:09;22.30;88.00
19665;DHT22;9980;51.020;7.772;2023-05-15T14:05:40;22.30;88.50
19665;DHT22;9980;51.020;7.772;2023-05-15T14:08:07;22.30;87.80
19665;DHT22;9980;51.020;7.772;2023-05-15T14:10:35;22.30;87.20
19665;DHT22;9980;51.020;7.772;2023-05-15T14:13:02;22.30;87.50
19665;DHT22;9980;51.020;7.772;2023-05-15T14:15:28;22.30;86.00
19665;DHT22;9980;51.020;7.772;2023-05-15T14:17:54;22.30;86.60
19665;DHT22;9980;51.020;7.772;2023-05-15T14:20:21;22.30;86.80
19665;DHT22;9980;51.020;7.772;2023-05-15T14:22:47;22.30;87.50
19665;DHT22;9980;51.020;7.772;2023-05-15T14:25:13;22.30;85.00
19665;DHT22;9980;51.020;7.772;2023-05-15T14:27:40;22.40;84.10
19665;DHT22;9980;51.020;7.772;2023-05-15T14:30:06;22.40;83.70
19665;DHT22;9980;51.020;7.772;2023-05-15T14:32:33;22.40;84.00
19665;DHT22;9980;51.020;7.772;2023-05-15T14:34:59;22.40;84.00
19665;DHT22;9980;51.020;7.772;2023-05-15T14:37:26;22.50;84.70
19665;DHT22;9980;51.020;7.772;2023-05-15T14:39:53;22.60;83.30
19665;DHT22;9980;51.020;7.772;2023-05-15T14:42:20;22.70;82.30
19665;DHT22;9980;51.020;7.772;2023-05-15T14:44:47;22.80;80.30
19665;DHT22;9980;51.020;7.772;2023-05-15T14:47:13;22.80;79.20
19665;DHT22;9980;51.020;7.772;2023-05-15T14:49:40;22.90;79.60
19665;DHT22;9980;51.020;7.772;2023-05-15T14:52:08;23.00;76.70
19665;DHT22;9980;51.020;7.772;2023-05-15T14:54:36;23.10;75.80
19665;DHT22;9980;51.020;7.772;2023-05-15T14:57:03;23.10;76.10
19665;DHT22;9980;51.020;7.772;2023-05-15T14:59:30;23.20;75.10
19665;DHT22;9980;51.020;7.772;2023-05-15T15:01:56;23.20;73.80
19665;DHT22;9980;51.020;7.772;2023-05-15T15:04:23;23.30;74.60
19665;DHT22;9980;51.020;7.772;2023-05-15T15:06:53;23.30;73.90
19665;DHT22;9980;51.020;7.772;2023-05-15T15:09:23;23.20;72.30
19665;DHT22;9980;51.020;7.772;2023-05-15T15:11:52;23.20;72.30
19665;DHT22;9980;51.020;7.772;2023-05-15T15:14:19;23.20;73.00
19665;DHT22;9980;51.020;7.772;2023-05-15T15:16:45;23.20;72.40
19665;DHT22;9980;51.020;7.772;2023-05-15T15:19:12;23.30;73.80
19665;DHT22;9980;51.020;7.772;2023-05-15T15:21:39;23.30;74.90
19665;DHT22;9980;51.020;7.772;2023-05-15T15:24:05;23.30;70.90
19665;DHT22;9980;51.020;7.772;2023-05-15T15:26:31;23.30;73.10
19665;DHT22;9980;51.020;7.772;2023-05-15T15:28:58;23.40;70.20
19665;DHT22;9980;51.020;7.772;2023-05-15T15:31:29;23.40;69.70
19665;DHT22;9980;51.020;7.772;2023-05-15T15:33:56;23.50;70.00
19665;DHT22;9980;51.020;7.772;2023-05-15T15:36:23;23.50;72.10
19665;DHT22;9980;51.020;7.772;2023-05-15T15:38:50;23.60;70.10
19665;DHT22;9980;51.020;7.772;2023-05-15T15:41:16;23.60;68.80
19665;DHT22;9980;51.020;7.772;2023-05-15T15:43:43;23.60;69.80
19665;DHT22;9980;51.020;7.772;2023-05-15T15:46:09;23.60;67.90
19665;DHT22;9980;51.020;7.772;2023-05-15T15:48:35;23.60;67.80
19665;DHT22;9980;51.020;7.772;2023-05-15T15:51:01;23.40;66.10
19665;DHT22;9980;51.020;7.772;2023-05-15T15:53:28;23.30;66.30
19665;DHT22;9980;51.020;7.772;2023-05-15T15:55:54;23.20;66.30
19665;DHT22;9980;51.020;7.772;2023-05-15T15:58:20;23.10;65.90
19665;DHT22;9980;51.020;7.772;2023-05-15T16:00:46;23.00;65.70
19665;DHT22;9980;51.020;7.772;2023-05-15T16:03:13;23.00;67.10
19665;DHT22;9980;51.020;7.772;2023-05-15T16:05:39;22.90;66.70
19665;DHT22;9980;51.020;7.772;2023-05-15T16:08:05;22.80;66.70
19665;DHT22;9980;51.020;7.772;2023-05-15T16:10:32;22.80;66.10
19665;DHT22;9980;51.020;7.772;2023-05-15T16:12:58;22.70;67.40
19665;DHT22;9980;51.020;7.772;2023-05-15T16:15:24;22.70;67.40
19665;DHT22;9980;51.020;7.772;2023-05-15T16:17:51;22.60;67.90